createdAt,value
2023-02-04T00:00:26.920Z,0.76
2023-02-04T00:02:54.552Z,0.98
2023-02-04T00:05:22.185Z,0.92
2023-02-04T00:07:49.723Z,1.03
2023-02-04T00:10:17.284Z,1.01
2023-02-04T00:12:44.789Z,1.04
2023-02-04T00:15:12.326Z,1.08
2023-02-04T00:17:39.807Z,1.10
2023-02-04T00:20:07.489Z,1.23
2023-02-04T00:22:34.991Z,1.18
2023-02-04T00:25:03.871Z,1.15
2023-02-04T00:27:31.588Z,1.16
2023-02-04T00:29:59.274Z,1.28
2023-02-04T00:32:27.008Z,1.34
2023-02-04T00:34:55.164Z,1.18
2023-02-04T00:37:22.883Z,1.02
2023-02-04T00:39:50.522Z,1.00
2023-02-04T00:42:18.064Z,1.03
2023-02-04T00:44:45.811Z,1.10
2023-02-04T00:47:13.278Z,1.40
2023-02-04T00:49:41.108Z,1.22
2023-02-04T00:52:08.646Z,1.15
2023-02-04T00:54:36.132Z,1.28
2023-02-04T00:57:03.707Z,1.39
2023-02-04T00:59:31.223Z,1.17
2023-02-04T01:01:58.823Z,1.03
2023-02-04T01:04:28.166Z,1.01
2023-02-04T01:06:55.725Z,1.24
2023-02-04T01:09:23.266Z,1.24
2023-02-04T01:11:50.794Z,1.32
2023-02-04T01:14:18.255Z,1.28
2023-02-04T01:16:45.861Z,1.44
2023-02-04T01:19:13.592Z,1.59
2023-02-04T01:21:41.155Z,1.21
2023-02-04T01:24:09.021Z,1.30
2023-02-04T01:26:56.496Z,1.49
2023-02-04T01:29:23.936Z,1.33
2023-02-04T01:31:51.813Z,1.34
2023-02-04T01:34:19.565Z,1.10
2023-02-04T01:36:47.036Z,1.13
2023-02-04T01:39:15.370Z,0.82
2023-02-04T01:41:42.933Z,0.82
2023-02-04T01:44:10.827Z,1.00
2023-02-04T01:46:38.457Z,1.24
2023-02-04T01:49:06.971Z,1.25
2023-02-04T01:51:35.257Z,1.09
2023-02-04T01:54:04.416Z,0.93
2023-02-04T01:56:32.724Z,0.91
2023-02-04T01:59:00.311Z,0.55
2023-02-04T02:01:39.124Z,0.76
2023-02-04T02:04:06.714Z,0.78
2023-02-04T02:06:36.340Z,0.97
2023-02-04T02:09:04.474Z,0.98
2023-02-04T02:11:32.902Z,0.88
2023-02-04T02:14:00.866Z,1.00
2023-02-04T02:16:30.267Z,0.97
2023-02-04T02:18:58.793Z,0.91
2023-02-04T02:21:39.525Z,0.91
2023-02-04T02:24:26.445Z,0.63
2023-02-04T02:26:56.362Z,0.60
2023-02-04T02:29:26.384Z,0.86
2023-02-04T02:31:57.635Z,0.59
2023-02-04T02:34:28.771Z,0.69
2023-02-04T02:36:58.294Z,0.43
2023-02-04T02:39:26.259Z,0.33
2023-02-04T02:41:55.846Z,0.38
2023-02-04T02:44:25.104Z,0.26
2023-02-04T02:46:54.234Z,0.22
2023-02-04T02:49:22.895Z,0.39
2023-02-04T02:51:50.395Z,0.37
2023-02-04T02:54:25.881Z,0.53
2023-02-04T02:56:57.188Z,0.13
2023-02-04T02:59:25.730Z,0.43
2023-02-04T03:02:02.186Z,0.60
2023-02-04T03:04:37.916Z,0.46
2023-02-04T03:07:07.292Z,0.40
2023-02-04T03:09:38.047Z,0.53
2023-02-04T03:12:06.570Z,0.72
2023-02-04T03:14:38.346Z,0.71
2023-02-04T03:17:09.233Z,0.65
2023-02-04T03:19:37.988Z,0.51
2023-02-04T03:22:07.096Z,0.58
2023-02-04T03:24:36.132Z,0.72
2023-02-04T03:27:04.580Z,0.74
2023-02-04T03:29:32.128Z,0.50
2023-02-04T03:32:06.514Z,0.71
2023-02-04T03:34:34.059Z,0.63
2023-02-04T03:37:01.539Z,0.73
2023-02-04T03:39:29.125Z,0.62
2023-02-04T03:41:56.596Z,0.42
2023-02-04T03:44:27.005Z,0.56
2023-02-04T03:46:55.666Z,0.52
2023-02-04T03:49:23.502Z,0.51
2023-02-04T03:51:51.274Z,0.26
2023-02-04T03:54:18.770Z,0.34
2023-02-04T03:56:46.383Z,0.59
2023-02-04T03:59:13.859Z,0.63
2023-02-04T04:01:41.478Z,0.69
2023-02-04T04:04:08.992Z,0.56
2023-02-04T04:06:36.456Z,0.60
2023-02-04T04:09:04.991Z,0.78
2023-02-04T04:11:32.577Z,0.64
2023-02-04T04:14:03.470Z,0.68
2023-02-04T04:16:31.271Z,0.83
2023-02-04T04:18:58.714Z,0.70
2023-02-04T04:21:26.155Z,0.63
2023-02-04T04:23:53.629Z,0.66
2023-02-04T04:26:21.210Z,0.76
2023-02-04T04:28:48.787Z,0.70
2023-02-04T04:31:16.352Z,0.56
2023-02-04T04:33:43.922Z,0.43
2023-02-04T04:36:11.525Z,0.20
2023-02-04T04:38:39.220Z,0.30
2023-02-04T04:41:06.768Z,0.53
2023-02-04T04:43:34.199Z,0.50
2023-02-04T04:46:01.634Z,0.18
2023-02-04T04:48:29.201Z,0.18
2023-02-04T04:50:56.766Z,0.04
2023-02-04T04:53:24.267Z,-0.08
2023-02-04T04:55:51.730Z,0.30
2023-02-04T04:58:19.161Z,0.35
2023-02-04T05:00:46.649Z,0.22
2023-02-04T05:03:14.275Z,0.33
2023-02-04T05:05:41.816Z,0.10
2023-02-04T05:08:14.216Z,0.31
2023-02-04T05:10:42.086Z,0.13
2023-02-04T05:13:10.136Z,0.20
2023-02-04T05:15:37.957Z,0.20
2023-02-04T05:18:05.477Z,0.10
2023-02-04T05:20:33.262Z,-0.03
2023-02-04T05:23:01.559Z,0.10
2023-02-04T05:25:29.448Z,-0.04
2023-02-04T05:27:57.033Z,0.06
2023-02-04T05:30:24.653Z,0.18
2023-02-04T05:32:52.208Z,0.25
2023-02-04T05:35:19.932Z,0.28
2023-02-04T05:37:47.650Z,0.11
2023-02-04T05:40:15.242Z,0.17
2023-02-04T05:42:42.740Z,0.20
2023-02-04T05:45:15.212Z,0.08
2023-02-04T05:47:42.800Z,-0.37
2023-02-04T05:50:11.164Z,-0.30
2023-02-04T05:52:38.680Z,0.01
2023-02-04T05:55:07.364Z,-0.30
2023-02-04T05:57:34.989Z,-0.43
2023-02-04T06:00:02.800Z,0.00
2023-02-04T06:02:39.439Z,-0.52
2023-02-04T06:05:07.220Z,-0.31
2023-02-04T06:07:34.719Z,-0.21
2023-02-04T06:10:02.214Z,-0.17
2023-02-04T06:12:29.720Z,0.06
2023-02-04T06:14:57.254Z,-0.05
2023-02-04T06:17:24.698Z,-0.04
2023-02-04T06:19:52.376Z,0.02
2023-02-04T06:22:19.962Z,0.09
2023-02-04T06:24:47.702Z,0.03
2023-02-04T06:27:18.681Z,0.22
2023-02-04T06:29:46.134Z,0.26
2023-02-04T06:32:13.748Z,0.05
2023-02-04T06:34:41.474Z,0.09
2023-02-04T06:37:09.063Z,-0.01
2023-02-04T06:39:36.750Z,-0.26
2023-02-04T06:42:04.597Z,-0.33
2023-02-04T06:44:32.122Z,-0.11
2023-02-04T06:46:59.697Z,-0.06
2023-02-04T06:49:27.238Z,0.20
2023-02-04T06:51:55.454Z,0.25
2023-02-04T06:54:23.025Z,0.32
2023-02-04T06:56:50.628Z,0.52
2023-02-04T06:59:18.549Z,0.47
2023-02-04T07:01:46.441Z,0.75
2023-02-04T07:04:14.012Z,0.77
2023-02-04T07:06:41.524Z,0.82
2023-02-04T07:09:09.019Z,0.76
2023-02-04T07:11:36.526Z,0.96
2023-02-04T07:14:04.100Z,1.31
2023-02-04T07:16:31.614Z,1.02
2023-02-04T07:18:59.224Z,0.84
2023-02-04T07:21:27.461Z,0.94
2023-02-04T07:23:55.001Z,0.60
2023-02-04T07:26:22.597Z,1.03
2023-02-04T07:28:50.181Z,1.32
2023-02-04T07:31:20.519Z,1.44
2023-02-04T07:33:48.276Z,1.21
2023-02-04T07:36:15.912Z,1.21
2023-02-04T07:38:43.510Z,1.31
2023-02-04T07:41:11.048Z,1.73
2023-02-04T07:43:38.873Z,1.69
2023-02-04T07:46:06.466Z,1.89
2023-02-04T07:48:34.165Z,1.64
2023-02-04T07:51:01.738Z,1.77
2023-02-04T07:53:29.257Z,1.94
2023-02-04T07:55:56.761Z,2.19
2023-02-04T07:58:24.415Z,2.22
2023-02-04T08:00:51.903Z,2.42
2023-02-04T08:03:19.429Z,2.60
2023-02-04T08:05:46.920Z,2.81
2023-02-04T08:08:15.345Z,2.59
2023-02-04T08:10:42.846Z,2.91
2023-02-04T08:13:10.533Z,3.24
2023-02-04T08:15:38.137Z,3.11
2023-02-04T08:18:05.851Z,3.47
2023-02-04T08:20:33.725Z,2.96
2023-02-04T08:23:01.341Z,2.85
2023-02-04T08:25:29.798Z,2.94
2023-02-04T08:27:57.256Z,3.45
2023-02-04T08:30:24.867Z,4.12
2023-02-04T08:32:52.521Z,5.34
2023-02-04T08:35:20.067Z,6.22
2023-02-04T08:37:47.572Z,6.59
2023-02-04T08:40:15.081Z,7.13
2023-02-04T08:42:46.491Z,5.91
2023-02-04T08:45:17.169Z,5.63
2023-02-04T08:47:44.671Z,5.24
2023-02-04T08:50:12.511Z,7.12
2023-02-04T08:52:40.253Z,7.14
2023-02-04T08:55:14.393Z,8.80
2023-02-04T08:57:41.987Z,8.53
2023-02-04T09:00:11.982Z,9.19
2023-02-04T09:02:39.513Z,9.10
2023-02-04T09:05:07.346Z,9.57
2023-02-04T09:07:34.827Z,9.98
2023-02-04T09:10:02.413Z,9.79
2023-02-04T09:12:30.746Z,7.61
2023-02-04T09:14:58.186Z,10.00
2023-02-04T09:17:26.610Z,10.79
2023-02-04T09:19:54.130Z,9.35
2023-02-04T09:22:21.603Z,9.53
2023-02-04T09:24:50.283Z,11.19
2023-02-04T09:27:17.805Z,10.48
2023-02-04T09:29:45.465Z,9.91
2023-02-04T09:32:13.102Z,10.00
2023-02-04T09:34:41.138Z,10.02
2023-02-04T09:37:09.162Z,11.42
2023-02-04T09:39:36.829Z,10.54
2023-02-04T09:42:04.980Z,9.90
2023-02-04T09:44:32.707Z,11.96
2023-02-04T09:47:01.236Z,12.07
2023-02-04T09:49:28.990Z,11.61
2023-02-04T09:51:57.273Z,11.28
2023-02-04T09:54:26.173Z,11.57
2023-02-04T09:56:54.240Z,11.34
2023-02-04T09:59:23.922Z,10.99
2023-02-04T10:01:59.732Z,8.66
2023-02-04T10:04:28.368Z,10.51
2023-02-04T10:06:59.083Z,10.95
2023-02-04T10:09:26.910Z,12.23
2023-02-04T10:11:54.783Z,10.68
2023-02-04T10:14:23.497Z,10.14
2023-02-04T10:17:01.513Z,11.57
2023-02-04T10:19:30.943Z,13.06
2023-02-04T10:21:58.784Z,12.67
2023-02-04T10:24:28.691Z,12.05
2023-02-04T10:27:08.985Z,13.22
2023-02-04T10:29:37.456Z,13.07
2023-02-04T10:32:05.217Z,12.22
2023-02-04T10:34:40.164Z,12.16
2023-02-04T10:37:21.473Z,12.16
2023-02-04T10:39:50.000Z,11.90
2023-02-04T10:42:26.415Z,11.73
2023-02-04T10:44:54.356Z,11.32
2023-02-04T10:47:29.362Z,11.56
2023-02-04T10:49:56.720Z,11.69
2023-02-04T10:52:31.182Z,10.65
2023-02-04T10:54:59.049Z,10.56
2023-02-04T10:57:28.525Z,11.07
2023-02-04T11:00:02.672Z,11.10
2023-02-04T11:02:43.832Z,10.79
2023-02-04T11:05:23.491Z,11.15
2023-02-04T11:07:51.351Z,11.31
2023-02-04T11:10:22.994Z,10.46
2023-02-04T11:12:53.157Z,11.06
2023-02-04T11:15:49.272Z,10.96
2023-02-04T11:18:20.685Z,10.99
2023-02-04T11:20:50.107Z,11.19
2023-02-04T11:23:26.489Z,10.64
2023-02-04T11:26:09.855Z,10.92
2023-02-04T11:28:50.711Z,11.08
2023-02-04T11:31:21.020Z,10.83
2023-02-04T11:33:50.379Z,10.24
2023-02-04T11:36:18.105Z,10.69
2023-02-04T11:38:48.151Z,10.94
2023-02-04T11:41:27.029Z,10.67
2023-02-04T11:43:56.577Z,10.91
2023-02-04T11:46:26.911Z,10.52
2023-02-04T11:48:56.637Z,10.43
2023-02-04T11:51:30.771Z,10.58
2023-02-04T11:53:58.552Z,10.37
2023-02-04T11:56:29.554Z,10.25
2023-02-04T11:58:58.657Z,10.58
2023-02-04T12:01:32.887Z,10.66
2023-02-04T12:04:03.624Z,10.37
2023-02-04T12:06:33.805Z,10.70
2023-02-04T12:09:26.293Z,10.89
2023-02-04T12:11:54.834Z,11.30
2023-02-04T12:14:22.304Z,11.17
2023-02-04T12:16:56.486Z,10.94
2023-02-04T12:19:26.710Z,10.68
2023-02-04T12:21:55.827Z,10.63
2023-02-04T12:24:23.384Z,11.00
2023-02-04T12:26:51.783Z,10.93
2023-02-04T12:29:19.249Z,11.05
2023-02-04T12:31:46.910Z,11.11
2023-02-04T12:34:14.389Z,11.05
2023-02-04T12:36:41.860Z,10.51
2023-02-04T12:39:10.481Z,10.91
2023-02-04T12:41:37.945Z,10.81
2023-02-04T12:44:05.467Z,10.93
2023-02-04T12:46:33.445Z,10.87
2023-02-04T12:49:01.131Z,10.83
2023-02-04T12:51:28.646Z,10.82
2023-02-04T12:53:56.279Z,10.93
2023-02-04T12:56:24.418Z,10.88
2023-02-04T12:58:51.979Z,10.87
2023-02-04T13:01:19.511Z,10.87
2023-02-04T13:03:47.051Z,10.91
2023-02-04T13:11:13.708Z,10.99
2023-02-04T13:13:48.859Z,11.15
2023-02-04T13:16:19.471Z,11.34
2023-02-04T13:18:48.525Z,11.22
2023-02-04T13:21:22.075Z,11.36
2023-02-04T13:23:55.064Z,11.67
2023-02-04T13:26:23.904Z,11.79
2023-02-04T13:38:06.409Z,11.53
2023-02-04T13:50:41.632Z,11.36
2023-02-04T13:57:53.081Z,11.60
2023-02-04T14:00:41.592Z,11.46
2023-02-04T14:03:17.052Z,11.37
2023-02-04T14:17:00.771Z,11.52
2023-02-04T14:23:09.419Z,11.49
2023-02-04T14:25:36.983Z,11.55
2023-02-04T14:28:06.089Z,11.56
2023-02-04T14:30:34.409Z,11.61
2023-02-04T14:33:02.146Z,11.58
2023-02-04T14:35:32.823Z,11.56
2023-02-04T14:38:00.618Z,11.74
2023-02-04T14:40:28.067Z,11.79
2023-02-04T14:42:55.507Z,11.86
2023-02-04T14:45:22.988Z,11.93
2023-02-04T14:47:52.704Z,11.95
2023-02-04T14:50:20.231Z,11.92
2023-02-04T14:52:47.612Z,11.97
2023-02-04T14:55:15.349Z,11.99
2023-02-04T14:57:42.811Z,11.88
2023-02-04T15:00:11.143Z,11.96
2023-02-04T15:02:39.355Z,11.87
2023-02-04T15:05:07.174Z,11.86
2023-02-04T15:07:34.926Z,11.73
2023-02-04T15:10:02.772Z,11.64
2023-02-04T15:12:30.187Z,11.58
2023-02-04T15:14:57.680Z,11.39
2023-02-04T15:17:28.299Z,11.22
2023-02-04T15:19:58.329Z,10.87
2023-02-04T15:22:25.811Z,10.70
2023-02-04T15:24:53.605Z,10.70
2023-02-04T15:27:21.139Z,10.50
2023-02-04T15:29:48.574Z,10.16
2023-02-04T15:32:23.486Z,9.78
2023-02-04T15:34:51.100Z,9.52
2023-02-04T15:37:19.204Z,9.37
2023-02-04T15:39:46.718Z,9.26
2023-02-04T15:42:14.984Z,9.10
2023-02-04T15:44:42.460Z,8.95
2023-02-04T15:47:10.032Z,8.83
2023-02-04T15:49:37.933Z,8.66
2023-02-04T15:52:08.860Z,8.48
2023-02-04T15:54:38.691Z,8.34
2023-02-04T15:57:06.342Z,8.22
2023-02-04T15:59:33.844Z,8.21
2023-02-04T16:02:01.414Z,8.13
2023-02-04T16:04:29.012Z,8.16
2023-02-04T16:06:59.018Z,8.01
2023-02-04T16:09:26.681Z,8.01
2023-02-04T16:11:54.639Z,7.97
2023-02-04T16:14:22.173Z,7.89
2023-02-04T16:16:49.651Z,7.92
2023-02-04T16:19:17.361Z,7.86
2023-02-04T16:21:44.900Z,7.95
2023-02-04T16:24:18.526Z,7.99
2023-02-04T16:26:46.235Z,7.98
2023-02-04T16:29:13.662Z,8.05
2023-02-04T16:31:41.208Z,8.04
2023-02-04T16:34:08.733Z,8.04
2023-02-04T16:36:36.204Z,8.12
2023-02-04T16:39:03.983Z,8.10
2023-02-04T16:41:31.496Z,8.11
2023-02-04T16:44:00.232Z,8.19
2023-02-04T16:46:30.589Z,8.25
2023-02-04T16:48:58.058Z,8.38
2023-02-04T16:51:25.677Z,8.32
2023-02-04T16:53:53.098Z,8.22
2023-02-04T16:56:20.599Z,8.33
2023-02-04T16:58:48.486Z,8.26
2023-02-04T17:01:17.513Z,8.17
2023-02-04T17:03:45.064Z,8.06
2023-02-04T17:06:16.424Z,8.02
2023-02-04T17:08:43.903Z,8.09
2023-02-04T17:11:29.107Z,8.07
2023-02-04T17:14:18.850Z,8.19
2023-02-04T17:16:47.240Z,8.23
2023-02-04T17:19:21.017Z,8.15
2023-02-04T17:21:49.110Z,8.13
2023-02-04T17:24:18.951Z,8.30
2023-02-04T17:26:46.584Z,8.41
2023-02-04T17:29:17.485Z,8.38
2023-02-04T17:31:45.008Z,8.36
2023-02-04T17:34:12.652Z,8.47
2023-02-04T17:36:40.183Z,8.57
2023-02-04T17:39:08.050Z,8.54
2023-02-04T17:41:35.437Z,8.63
2023-02-04T17:44:03.597Z,8.59
2023-02-04T17:46:31.434Z,8.69
2023-02-04T17:48:59.015Z,8.69
2023-02-04T17:51:26.561Z,8.76
2023-02-04T17:53:54.010Z,8.73
2023-02-04T17:56:40.162Z,8.77
2023-02-04T17:59:10.201Z,8.94
2023-02-04T18:01:38.011Z,8.96
2023-02-04T18:04:11.773Z,8.85
2023-02-04T18:06:39.343Z,8.77
2023-02-04T18:09:17.381Z,8.94
2023-02-04T18:11:45.258Z,9.03
2023-02-04T18:14:20.867Z,9.10
2023-02-04T18:16:48.954Z,9.25
2023-02-04T18:19:22.160Z,9.16
2023-02-04T18:21:50.114Z,9.37
2023-02-04T18:24:30.582Z,9.28
2023-02-04T18:27:09.061Z,9.34
2023-02-04T18:29:39.570Z,9.20
2023-02-04T18:32:20.488Z,9.07
2023-02-04T18:34:53.404Z,9.06
2023-02-04T18:37:36.590Z,9.06
2023-02-04T18:40:11.214Z,8.86
2023-02-04T18:42:43.421Z,8.85
2023-02-04T18:45:30.485Z,8.83
2023-02-04T18:48:01.278Z,8.68
2023-02-04T18:50:32.245Z,8.77
2023-02-04T18:53:22.042Z,8.58
2023-02-04T18:55:55.502Z,8.44
2023-02-04T18:58:43.088Z,8.28
2023-02-04T19:01:11.719Z,8.37
2023-02-04T19:03:53.358Z,8.33
2023-02-04T19:06:33.023Z,8.42
2023-02-04T19:09:12.342Z,8.35
2023-02-04T19:11:46.301Z,8.42
2023-02-04T19:14:22.587Z,8.49
2023-02-04T19:16:52.854Z,8.38
2023-02-04T19:19:26.211Z,8.29
2023-02-04T19:21:53.744Z,8.35
2023-02-04T19:24:25.126Z,8.42
2023-02-04T19:26:58.701Z,8.32
2023-02-04T19:29:38.816Z,8.43
2023-02-04T19:32:24.265Z,8.31
2023-02-04T19:34:53.914Z,8.40
2023-02-04T19:37:39.941Z,8.46
2023-02-04T19:40:24.074Z,8.48
2023-02-04T19:43:02.298Z,8.50
2023-02-04T19:45:30.138Z,8.58
2023-02-04T19:47:57.691Z,8.50
2023-02-04T19:50:32.730Z,8.42
2023-02-04T19:53:08.960Z,8.29
2023-02-04T19:55:44.231Z,8.20
2023-02-04T19:58:18.420Z,8.12
2023-02-04T20:00:56.030Z,8.03
2023-02-04T20:03:35.898Z,8.04
2023-02-04T20:06:09.527Z,8.00
2023-02-04T20:08:41.687Z,7.84
2023-02-04T20:11:18.091Z,7.73
2023-02-04T20:13:45.595Z,7.65
2023-02-04T20:16:40.813Z,7.61
2023-02-04T20:19:26.335Z,7.46
2023-02-04T20:22:12.540Z,7.35
2023-02-04T20:24:41.796Z,7.36
2023-02-04T20:27:22.374Z,7.54
2023-02-04T20:30:01.214Z,7.56
2023-02-04T20:32:30.310Z,7.55
2023-02-04T20:35:07.748Z,8.03
2023-02-04T20:37:36.099Z,8.11
2023-02-04T20:40:31.920Z,8.15
2023-02-04T20:43:20.331Z,8.11
2023-02-04T20:45:55.190Z,8.04
2023-02-04T20:48:33.868Z,8.05
2023-02-04T20:51:05.481Z,8.00
2023-02-04T20:53:41.801Z,8.00
2023-02-04T20:56:30.600Z,8.04
2023-02-04T20:59:12.942Z,7.73
2023-02-04T21:01:46.638Z,7.64
2023-02-04T21:04:37.393Z,7.52
2023-02-04T21:07:22.988Z,7.50
2023-02-04T21:09:52.051Z,7.35
2023-02-04T21:12:20.543Z,7.35
2023-02-04T21:14:50.434Z,7.32
2023-02-04T21:17:17.954Z,7.23
2023-02-04T21:19:45.525Z,7.18
2023-02-04T21:22:13.045Z,7.09
2023-02-04T21:24:44.725Z,6.98
2023-02-04T21:27:12.470Z,6.93
2023-02-04T21:29:39.926Z,6.90
2023-02-04T21:32:08.613Z,6.87
2023-02-04T21:34:36.078Z,6.83
2023-02-04T21:37:03.620Z,6.72
2023-02-04T21:39:31.177Z,6.63
2023-02-04T21:42:13.529Z,6.56
2023-02-04T21:44:41.145Z,6.44
2023-02-04T21:47:08.715Z,6.36
2023-02-04T21:49:39.461Z,6.36
2023-02-04T21:52:07.856Z,6.34
2023-02-04T21:54:35.518Z,6.40
2023-02-04T21:57:04.529Z,6.40
2023-02-04T21:59:32.060Z,6.29
2023-02-04T22:01:59.720Z,6.27
2023-02-04T22:04:29.520Z,6.44
2023-02-04T22:06:57.114Z,6.45
2023-02-04T22:09:25.790Z,6.36
2023-02-04T22:11:53.314Z,6.19
2023-02-04T22:14:40.171Z,6.19
2023-02-04T22:17:07.739Z,6.29
2023-02-04T22:19:35.250Z,6.32
2023-02-04T22:22:02.767Z,6.28
2023-02-04T22:24:30.297Z,6.13
2023-02-04T22:26:57.920Z,6.14
2023-02-04T22:29:28.877Z,6.17
2023-02-04T22:31:56.590Z,6.24
2023-02-04T22:34:25.341Z,6.22
2023-02-04T22:36:53.247Z,6.13
2023-02-04T22:39:20.845Z,6.06
2023-02-04T22:41:53.473Z,6.02
2023-02-04T22:44:55.546Z,6.04
2023-02-04T22:47:28.831Z,6.07
2023-02-04T22:49:56.404Z,6.06
2023-02-04T22:52:27.564Z,6.09
2023-02-04T22:55:04.844Z,6.06
2023-02-04T22:57:32.467Z,6.04
2023-02-04T23:00:00.072Z,5.98
2023-02-04T23:02:27.757Z,5.76
2023-02-04T23:04:57.402Z,5.66
2023-02-04T23:07:29.812Z,5.59
2023-02-04T23:09:59.991Z,5.43
2023-02-04T23:12:30.128Z,5.28
2023-02-04T23:15:08.626Z,5.09
2023-02-04T23:17:36.398Z,5.06
2023-02-04T23:20:07.642Z,4.80
2023-02-04T23:22:35.394Z,4.86
2023-02-04T23:25:06.632Z,4.85
2023-02-04T23:27:34.490Z,4.75
2023-02-04T23:30:04.501Z,4.64
2023-02-04T23:32:32.284Z,4.62
2023-02-04T23:35:00.083Z,4.61
2023-02-04T23:37:33.718Z,4.66
2023-02-04T23:40:06.007Z,4.57
2023-02-04T23:42:34.105Z,4.56
2023-02-04T23:50:14.933Z,4.33
2023-02-04T23:55:52.663Z,4.23
